Time;durP1;ratioP1;P1;durP2;ratioP2;P2;SDS_P1;SDS_P2;PMS_P1;PMS_P2;Temp;Humidity;BMP_temperature;BMP_pressure;BME280_temperature;BME280_humidity;BME280_pressure;Samples;Min_cycle;Max_cycle;Signal;HPM_P1;HPM_P2
2023/02/16 00:01:24;;;;;;;1.33;1.20;;;3.50;99.90;;;;;;4429465;32;20092;-65
2023/02/16 00:03:51;;;;;;;1.35;1.25;;;3.40;99.90;;;;;;4427424;32;20154;-65
2023/02/16 00:06:16;;;;;;;1.58;1.48;;;3.40;99.90;;;;;;4426394;32;20995;-65
2023/02/16 00:08:45;;;;;;;1.37;1.27;;;3.40;99.90;;;;;;4427209;32;20068;-66
2023/02/16 00:13:46;;;;;;;1.08;0.80;;;3.40;99.90;;;;;;4426650;32;20504;-66
2023/02/16 00:14:17;;;;;;;6.40;1.55;;;3.50;99.90;;;;;;4424929;32;20470;-65
2023/02/16 00:16:43;;;;;;;1.12;1.00;;;3.40;99.90;;;;;;4428884;32;20064;-66
2023/02/16 00:19:17;;;;;;;1.42;0.80;;;3.40;99.90;;;;;;4430525;32;20064;-66
2023/02/16 00:21:42;;;;;;;1.08;1.08;;;3.30;99.90;;;;;;4426726;32;20143;-66
2023/02/16 00:24:08;;;;;;;1.73;1.35;;;3.30;99.90;;;;;;4427649;32;20088;-65
2023/02/16 00:26:34;;;;;;;1.20;1.12;;;3.40;99.90;;;;;;4430993;32;20064;-65
2023/02/16 00:29:00;;;;;;;1.48;1.05;;;3.40;99.90;;;;;;4428761;32;20559;-66
2023/02/16 00:31:30;;;;;;;1.20;1.10;;;3.40;99.90;;;;;;4427143;32;20068;-66
2023/02/16 00:33:56;;;;;;;0.70;0.70;;;3.30;99.90;;;;;;4425379;32;20061;-65
2023/02/16 00:36:22;;;;;;;0.60;0.60;;;3.30;99.90;;;;;;4426237;32;20158;-65
2023/02/16 00:38:47;;;;;;;1.55;1.23;;;3.20;99.90;;;;;;4427586;32;20105;-65
2023/02/16 00:41:52;;;;;;;1.67;1.58;;;3.00;99.90;;;;;;4426407;32;20151;-65
2023/02/16 00:44:15;;;;;;;3.17;2.15;;;3.10;99.90;;;;;;4415405;32;20089;-65
2023/02/16 00:46:41;;;;;;;2.28;1.80;;;3.10;99.90;;;;;;4413392;32;20496;-64
2023/02/16 00:49:13;;;;;;;0.93;0.93;;;3.20;99.90;;;;;;4427816;32;20061;-65
2023/02/16 00:51:39;;;;;;;1.15;1.08;;;3.10;99.90;;;;;;4425565;32;20088;-65
2023/02/16 00:54:04;;;;;;;2.62;1.52;;;3.00;99.90;;;;;;4426915;32;20058;-65
2023/02/16 00:56:31;;;;;;;0.60;0.60;;;3.10;99.90;;;;;;4429689;32;20073;-65
2023/02/16 00:58:59;;;;;;;0.88;0.88;;;3.10;99.90;;;;;;4428289;32;20469;-64
2023/02/16 01:01:29;;;;;;;1.27;0.98;;;3.00;99.90;;;;;;4427781;32;20077;-65
2023/02/16 01:03:55;;;;;;;1.70;1.37;;;2.90;99.90;;;;;;4426901;32;20561;-65
2023/02/16 01:11:12;;;;;;;1.52;0.88;;;2.90;99.90;;;;;;4424588;32;20098;-65
2023/02/16 01:11:58;;;;;;;0.95;0.75;;;2.90;99.90;;;;;;4425563;32;20423;-64
2023/02/16 01:14:24;;;;;;;2.70;1.08;;;3.00;99.90;;;;;;4429069;32;20175;-65
2023/02/16 01:16:49;;;;;;;0.75;0.75;;;3.00;99.90;;;;;;4425331;32;20484;-64
2023/02/16 01:19:15;;;;;;;0.95;0.95;;;2.90;99.90;;;;;;4424934;32;20389;-64
2023/02/16 01:21:40;;;;;;;3.83;1.52;;;2.90;99.90;;;;;;4428669;32;20080;-65
2023/02/16 01:24:06;;;;;;;0.80;0.80;;;3.00;99.90;;;;;;4430793;32;20121;-65
2023/02/16 01:26:49;;;;;;;5.05;1.05;;;3.00;99.90;;;;;;4432447;32;20390;-64
2023/02/16 01:29:17;;;;;;;0.65;0.65;;;3.10;99.90;;;;;;4426365;32;20143;-65
2023/02/16 01:31:44;;;;;;;0.68;0.68;;;3.10;99.90;;;;;;4428689;32;21299;-65
2023/02/16 01:34:09;;;;;;;1.08;0.98;;;3.00;99.90;;;;;;4426533;32;20452;-65
2023/02/16 01:36:39;;;;;;;4.50;3.35;;;2.90;99.90;;;;;;4432321;32;20080;-65
2023/02/16 01:39:06;;;;;;;0.88;0.88;;;2.90;99.90;;;;;;4419274;32;20065;-65
2023/02/16 01:41:59;;;;;;;0.70;0.70;;;2.80;99.90;;;;;;4418177;32;20103;-65
2023/02/16 01:44:40;;;;;;;0.73;0.73;;;3.00;99.90;;;;;;4418757;32;20557;-64
2023/02/16 01:47:31;;;;;;;5.25;1.15;;;3.10;99.90;;;;;;4428560;32;20093;-64
2023/02/16 01:49:57;;;;;;;1.00;0.90;;;3.10;99.90;;;;;;4416351;32;20114;-65
2023/02/16 01:52:33;;;;;;;1.52;1.20;;;3.10;99.90;;;;;;4416190;32;20097;-66
2023/02/16 01:55:06;;;;;;;1.40;1.30;;;3.20;99.90;;;;;;4431048;32;20085;-64
2023/02/16 01:57:41;;;;;;;0.80;0.80;;;3.20;99.90;;;;;;4430819;32;20114;-63
2023/02/16 02:00:11;;;;;;;1.40;1.12;;;3.10;99.90;;;;;;4426874;32;20097;-65
2023/02/16 02:02:42;;;;;;;1.52;1.10;;;3.00;99.90;;;;;;4426397;32;20113;-64
2023/02/16 02:05:47;;;;;;;;;;;2.90;99.90;;;;;;4429508;32;20109;-65
2023/02/16 02:08:39;;;;;;;0.80;0.80;;;2.90;99.90;;;;;;4416250;32;20067;-65
2023/02/16 02:11:16;;;;;;;0.50;0.50;;;3.10;99.90;;;;;;4405643;32;21268;-65
2023/02/16 02:13:48;;;;;;;0.95;0.75;;;3.00;99.90;;;;;;4432000;32;20085;-65
2023/02/16 02:16:19;;;;;;;2.37;1.20;;;3.10;99.90;;;;;;4430834;32;20057;-65
2023/02/16 02:18:45;;;;;;;1.17;1.12;;;3.10;99.90;;;;;;4432514;32;20136;-66
2023/02/16 02:23:44;;;;;;;0.75;0.75;;;3.00;99.90;;;;;;4431841;32;20072;-65
2023/02/16 02:25:02;;;;;;;3.42;1.52;;;2.90;99.90;;;;;;4418900;32;20070;-64
2023/02/16 02:27:35;;;;;;;1.10;0.90;;;2.80;99.90;;;;;;4429280;32;20105;-65
2023/02/16 02:30:19;;;;;;;0.88;0.88;;;2.80;99.90;;;;;;4418466;32;20089;-64
2023/02/16 02:33:05;;;;;;;1.75;1.55;;;2.90;99.90;;;;;;4430451;32;20110;-64
2023/02/16 02:35:45;;;;;;;0.73;0.73;;;2.70;99.90;;;;;;4416847;32;20069;-65
2023/02/16 02:38:51;;;;;;;0.50;0.50;;;2.60;99.90;;;;;;4429081;32;20093;-65
2023/02/16 02:42:12;;;;;;;0.70;0.70;;;2.40;99.90;;;;;;4413817;32;20085;-64
2023/02/16 02:44:29;;;;;;;0.65;0.65;;;2.60;99.90;;;;;;4400077;32;20081;-65
2023/02/16 02:46:55;;;;;;;2.70;2.40;;;2.60;99.90;;;;;;4404056;32;20493;-64
2023/02/16 02:49:20;;;;;;;1.37;1.25;;;2.50;99.90;;;;;;4414871;32;20153;-65
2023/02/16 02:51:46;;;;;;;1.05;1.05;;;2.60;99.90;;;;;;4416514;32;20069;-65
2023/02/16 03:00:53;;;;;;;1.45;1.20;;;2.40;99.90;;;;;;4382912;32;20559;-65
2023/02/16 03:03:17;;;;;;;1.52;1.42;;;2.50;99.90;;;;;;4402977;32;20109;-65
2023/02/16 03:05:53;;;;;;;0.80;0.80;;;2.70;99.90;;;;;;4415418;32;20147;-64
2023/02/16 03:08:22;;;;;;;0.60;0.60;;;2.80;99.90;;;;;;4416561;32;20062;-65
2023/02/16 03:12:53;;;;;;;3.20;1.60;;;2.90;99.90;;;;;;4415516;32;20418;-65
2023/02/16 03:13:43;;;;;;;1.98;1.25;;;2.90;99.90;;;;;;4396914;32;20124;-65
2023/02/16 03:16:22;;;;;;;2.28;1.30;;;2.90;99.90;;;;;;4402196;32;20053;-65
2023/02/16 03:29:21;;;;;;;0.80;0.80;;;3.00;99.90;;;;;;4392117;32;20085;-65
2023/02/16 03:30:00;;;;;;;0.50;0.50;;;2.90;99.90;;;;;;4396043;32;20062;-64
2023/02/16 03:32:26;;;;;;;0.85;0.82;;;2.90;99.90;;;;;;4407886;32;20143;-65
2023/02/16 03:34:51;;;;;;;5.60;1.62;;;3.00;99.90;;;;;;4412574;32;20198;-65
2023/02/16 03:37:17;;;;;;;0.95;0.90;;;2.90;99.90;;;;;;4417495;32;20128;-64
2023/02/16 03:40:43;;;;;;;0.50;0.50;;;2.90;99.90;;;;;;4392625;32;20062;-64
2023/02/16 03:42:28;;;;;;;0.73;0.70;;;2.80;99.90;;;;;;4408768;32;20068;-65
2023/02/16 03:44:54;;;;;;;0.57;0.57;;;2.90;99.90;;;;;;4426517;32;20080;-65
2023/02/16 03:47:19;;;;;;;1.20;1.10;;;2.80;99.90;;;;;;4431969;32;21242;-65
2023/02/16 03:49:44;;;;;;;2.47;1.10;;;2.80;99.90;;;;;;4433280;32;20082;-65
2023/02/16 03:52:10;;;;;;;2.92;1.23;;;2.90;99.90;;;;;;4436225;32;20603;-65
2023/02/16 03:54:35;;;;;;;0.57;0.57;;;2.80;99.90;;;;;;4436415;32;20092;-64
2023/02/16 03:57:01;;;;;;;0.50;0.50;;;2.80;99.90;;;;;;4429622;32;20191;-64
2023/02/16 03:59:26;;;;;;;1.95;1.50;;;2.90;99.90;;;;;;4430000;32;20081;-65
2023/02/16 04:01:52;;;;;;;0.70;0.62;;;2.90;99.90;;;;;;4428624;32;20148;-64
2023/02/16 04:04:17;;;;;;;0.60;0.60;;;2.80;99.90;;;;;;4430825;32;20057;-65
2023/02/16 04:06:43;;;;;;;1.52;1.30;;;2.70;99.90;;;;;;4433766;32;20081;-65
2023/02/16 04:09:09;;;;;;;0.90;0.90;;;2.60;99.90;;;;;;4436350;32;20176;-65
2023/02/16 04:12:35;;;;;;;1.77;1.37;;;2.70;99.90;;;;;;4429620;32;21200;-65
2023/02/16 04:14:20;;;;;;;0.73;0.73;;;2.70;99.90;;;;;;4421096;32;20116;-65
2023/02/16 04:16:46;;;;;;;1.85;1.30;;;2.60;99.90;;;;;;4432585;32;20301;-65
2023/02/16 04:19:11;;;;;;;0.60;0.60;;;2.70;99.90;;;;;;4433988;32;20135;-65
2023/02/16 04:21:37;;;;;;;3.80;1.73;;;2.70;99.90;;;;;;4434421;32;20065;-65
2023/02/16 04:24:04;;;;;;;0.60;0.60;;;2.70;99.90;;;;;;4433916;32;20099;-65
2023/02/16 04:26:30;;;;;;;0.82;0.80;;;2.70;99.90;;;;;;4430824;32;20427;-64
2023/02/16 04:28:56;;;;;;;0.60;0.60;;;2.70;99.90;;;;;;4417601;32;20081;-64
2023/02/16 04:31:21;;;;;;;7.20;1.33;;;2.70;99.90;;;;;;4429017;32;20065;-65
2023/02/16 04:33:47;;;;;;;1.30;1.17;;;2.70;99.90;;;;;;4431402;32;20069;-64
2023/02/16 04:36:12;;;;;;;0.57;0.57;;;2.70;99.90;;;;;;4430347;32;20104;-65
2023/02/16 04:38:37;;;;;;;0.47;0.47;;;2.70;99.90;;;;;;4428664;32;20069;-65
2023/02/16 04:41:03;;;;;;;0.70;0.70;;;2.60;99.90;;;;;;4434400;32;20089;-64
2023/02/16 04:43:29;;;;;;;0.95;0.82;;;2.60;99.90;;;;;;4432538;32;20093;-65
2023/02/16 04:45:54;;;;;;;0.50;0.50;;;2.70;99.90;;;;;;4430416;32;20082;-65
2023/02/16 04:48:19;;;;;;;1.08;1.08;;;2.70;99.90;;;;;;4428716;32;20085;-65
2023/02/16 04:50:45;;;;;;;0.57;0.57;;;2.70;99.90;;;;;;4430208;32;20082;-65
2023/02/16 04:53:10;;;;;;;0.60;0.60;;;2.60;99.90;;;;;;4429751;32;20534;-65
2023/02/16 04:55:36;;;;;;;1.98;1.20;;;2.60;99.90;;;;;;4431124;32;20089;-65
2023/02/16 04:58:01;;;;;;;1.08;1.05;;;2.70;99.90;;;;;;4432535;32;20074;-65
2023/02/16 05:00:28;;;;;;;3.17;1.15;;;2.60;99.90;;;;;;4419472;32;20127;-65
2023/02/16 05:02:53;;;;;;;1.02;0.90;;;2.60;99.90;;;;;;4409755;32;20217;-65
2023/02/16 05:05:18;;;;;;;0.73;0.73;;;2.60;99.90;;;;;;4424595;32;20497;-65
2023/02/16 05:07:44;;;;;;;1.48;1.33;;;2.60;99.90;;;;;;4432993;32;20085;-65
2023/02/16 05:10:09;;;;;;;20.33;1.40;;;2.50;99.90;;;;;;4432888;32;20093;-64
2023/02/16 05:14:50;;;;;;;5.05;1.48;;;2.50;99.90;;;;;;4417847;32;20093;-65
2023/02/16 05:15:20;;;;;;;1.58;1.27;;;2.40;99.90;;;;;;4415519;32;20106;-65
2023/02/16 05:17:46;;;;;;;4.97;1.62;;;2.30;99.90;;;;;;4418058;32;20097;-65
2023/02/16 05:20:12;;;;;;;0.80;0.80;;;2.20;99.90;;;;;;4427864;32;20556;-65
2023/02/16 05:22:38;;;;;;;0.95;0.93;;;2.20;99.90;;;;;;4423839;32;20303;-65
2023/02/16 05:25:05;;;;;;;0.70;0.70;;;2.10;99.90;;;;;;4432291;32;20085;-65
2023/02/16 05:27:30;;;;;;;3.45;1.35;;;2.20;99.90;;;;;;4432067;32;20078;-64
2023/02/16 05:29:57;;;;;;;0.88;0.88;;;2.20;99.90;;;;;;4417174;32;20121;-65
2023/02/16 05:32:22;;;;;;;1.30;1.20;;;2.20;99.90;;;;;;4417431;32;20127;-65
2023/02/16 05:34:48;;;;;;;0.52;0.52;;;2.20;99.90;;;;;;4429215;32;20421;-65
2023/02/16 05:37:15;;;;;;;0.80;0.80;;;2.30;99.90;;;;;;4416324;32;20065;-64
2023/02/16 05:39:41;;;;;;;0.75;0.75;;;2.30;99.90;;;;;;4431063;32;21153;-66
2023/02/16 05:42:06;;;;;;;1.17;1.15;;;2.40;99.90;;;;;;4434153;32;20078;-64
2023/02/16 05:44:32;;;;;;;3.97;2.75;;;2.40;99.90;;;;;;4434980;32;20131;-64
2023/02/16 05:46:58;;;;;;;0.90;0.90;;;2.50;99.90;;;;;;4414622;32;20094;-64
2023/02/16 05:49:23;;;;;;;0.70;0.70;;;2.30;99.90;;;;;;4423562;32;20184;-64
2023/02/16 05:51:49;;;;;;;1.10;1.00;;;2.40;99.90;;;;;;4431440;32;20211;-65
2023/02/16 05:54:16;;;;;;;0.68;0.68;;;2.30;99.90;;;;;;4429425;32;20092;-65
2023/02/16 05:56:43;;;;;;;0.75;0.75;;;2.30;99.90;;;;;;4432185;32;20062;-65
2023/02/16 05:59:09;;;;;;;0.93;0.93;;;2.30;99.90;;;;;;4415758;32;20058;-65
2023/02/16 06:01:35;;;;;;;1.05;1.02;;;2.20;99.90;;;;;;4427440;32;20084;-64
2023/02/16 06:04:00;;;;;;;3.28;1.45;;;2.20;99.90;;;;;;4427909;32;20097;-64
2023/02/16 06:06:25;;;;;;;0.85;0.82;;;2.30;99.90;;;;;;4427588;32;20065;-64
2023/02/16 06:08:51;;;;;;;0.50;0.50;;;2.30;99.90;;;;;;4421811;32;20085;-65
2023/02/16 06:11:48;;;;;;;0.90;0.90;;;2.20;99.90;;;;;;4427622;32;20928;-65
2023/02/16 06:14:04;;;;;;;0.80;0.80;;;2.20;99.90;;;;;;4417966;32;20093;-65
2023/02/16 06:16:31;;;;;;;3.35;1.48;;;2.30;99.90;;;;;;4417223;32;20112;-64
2023/02/16 06:18:57;;;;;;;7.90;3.00;;;2.30;99.90;;;;;;4403738;32;20077;-64
2023/02/16 06:21:23;;;;;;;0.90;0.90;;;2.30;99.90;;;;;;4403073;32;20086;-64
2023/02/16 06:23:49;;;;;;;2.55;1.75;;;2.20;99.90;;;;;;4427807;32;20101;-64
2023/02/16 06:26:15;;;;;;;1.23;1.12;;;2.30;99.90;;;;;;4418037;32;20521;-63
2023/02/16 06:28:41;;;;;;;20.67;2.30;;;2.30;99.90;;;;;;4407540;32;20089;-64
2023/02/16 06:31:07;;;;;;;0.73;0.73;;;2.30;99.90;;;;;;4390076;32;20085;-63
2023/02/16 06:33:33;;;;;;;1.15;1.05;;;2.30;99.90;;;;;;4420081;32;20085;-64
2023/02/16 06:35:59;;;;;;;0.82;0.82;;;2.30;99.90;;;;;;4422329;32;20593;-64
2023/02/16 06:38:25;;;;;;;0.60;0.60;;;2.20;99.90;;;;;;4421494;32;20081;-65
2023/02/16 06:40:53;;;;;;;0.70;0.70;;;2.20;99.90;;;;;;4422805;32;20073;-64
2023/02/16 06:43:19;;;;;;;0.70;0.70;;;2.20;99.90;;;;;;4402272;32;20073;-64
2023/02/16 06:45:46;;;;;;;1.42;1.12;;;2.30;99.90;;;;;;4417493;32;20467;-65
2023/02/16 06:48:12;;;;;;;0.98;0.98;;;2.20;99.90;;;;;;4396182;32;20144;-67
2023/02/16 06:50:37;;;;;;;1.02;0.98;;;2.20;99.90;;;;;;4403349;32;20565;-64
2023/02/16 06:53:03;;;;;;;1.00;0.98;;;2.30;99.90;;;;;;4404093;32;20078;-64
2023/02/16 06:55:33;;;;;;;0.95;0.95;;;2.30;99.90;;;;;;4406456;32;21104;-64
2023/02/16 06:57:59;;;;;;;0.52;0.52;;;2.40;99.90;;;;;;4396183;32;20162;-64
2023/02/16 07:00:24;;;;;;;0.93;0.82;;;2.40;99.90;;;;;;4346931;32;20981;-64
2023/02/16 07:02:50;;;;;;;0.60;0.60;;;2.40;99.90;;;;;;4372080;32;20581;-63
2023/02/16 07:05:16;;;;;;;1.60;1.48;;;2.40;99.90;;;;;;4377564;32;20196;-68
2023/02/16 07:07:42;;;;;;;0.70;0.70;;;2.50;99.90;;;;;;4386749;32;20112;-64
2023/02/16 07:10:08;;;;;;;0.90;0.90;;;2.50;99.90;;;;;;4383533;32;20097;-64
2023/02/16 07:12:33;;;;;;;0.70;0.70;;;2.50;99.90;;;;;;4366515;32;20167;-64
2023/02/16 07:14:59;;;;;;;0.50;0.50;;;2.50;99.90;;;;;;4370021;32;20137;-64
2023/02/16 07:17:24;;;;;;;1.83;0.95;;;2.60;99.90;;;;;;4387200;32;20149;-64
2023/02/16 07:19:50;;;;;;;0.77;0.77;;;2.60;99.90;;;;;;4396408;32;20084;-64
2023/02/16 07:22:16;;;;;;;0.82;0.82;;;2.50;99.90;;;;;;4393321;32;20097;-62
2023/02/16 07:24:41;;;;;;;0.75;0.75;;;2.40;99.90;;;;;;4402050;32;20093;-64
2023/02/16 07:27:07;;;;;;;0.68;0.68;;;2.40;99.90;;;;;;4390511;32;20289;-63
2023/02/16 07:29:33;;;;;;;3.90;2.05;;;2.50;99.90;;;;;;4370329;32;20089;-64
2023/02/16 07:31:59;;;;;;;1.02;0.90;;;2.60;99.90;;;;;;4386244;32;20218;-64
2023/02/16 07:34:24;;;;;;;1.55;1.15;;;2.70;99.90;;;;;;4391465;32;20447;-63
2023/02/16 07:36:50;;;;;;;0.43;0.43;;;2.70;99.90;;;;;;4391446;32;20169;-63
2023/02/16 07:39:15;;;;;;;1.45;1.30;;;2.70;99.90;;;;;;4384359;32;20105;-65
2023/02/16 07:41:41;;;;;;;1.58;1.40;;;2.70;99.90;;;;;;4394928;32;21979;-64
2023/02/16 07:44:07;;;;;;;0.65;0.65;;;2.70;99.90;;;;;;4385595;32;20090;-64
2023/02/16 07:46:32;;;;;;;0.55;0.55;;;2.80;99.90;;;;;;4382181;32;20081;-63
2023/02/16 07:48:58;;;;;;;0.50;0.50;;;2.90;99.90;;;;;;4384236;32;20096;-64
2023/02/16 07:51:27;;;;;;;1.35;0.95;;;2.90;99.90;;;;;;4394895;32;20930;-66
2023/02/16 07:53:53;;;;;;;0.57;0.57;;;3.00;99.90;;;;;;4390574;32;20117;-66
2023/02/16 07:56:22;;;;;;;2.28;1.60;;;3.10;99.90;;;;;;4393877;32;20093;-66
2023/02/16 07:58:49;;;;;;;8.75;1.45;;;3.30;99.90;;;;;;4394876;32;20885;-63
2023/02/16 08:01:16;;;;;;;1.35;0.90;;;3.30;99.90;;;;;;4389274;32;20373;-64
2023/02/16 08:03:41;;;;;;;1.80;1.45;;;3.30;99.90;;;;;;4394967;32;20109;-64
2023/02/16 08:06:07;;;;;;;0.88;0.88;;;3.40;99.90;;;;;;4387310;32;20646;-65
2023/02/16 08:08:34;;;;;;;0.60;0.60;;;3.50;99.90;;;;;;4393496;32;20191;-64
2023/02/16 08:11:06;;;;;;;1.33;1.23;;;3.60;99.90;;;;;;4376313;32;20073;-62
2023/02/16 08:13:31;;;;;;;0.70;0.70;;;3.60;99.90;;;;;;4382971;32;20104;-63
2023/02/16 08:15:57;;;;;;;2.75;1.55;;;3.70;99.90;;;;;;4393015;32;20141;-63
2023/02/16 08:18:22;;;;;;;0.95;0.90;;;3.70;99.90;;;;;;4390637;32;20126;-63
2023/02/16 08:20:48;;;;;;;0.93;0.93;;;3.80;99.90;;;;;;4386175;32;20268;-64
2023/02/16 08:23:13;;;;;;;1.27;0.85;;;3.90;99.90;;;;;;4382670;32;20082;-63
2023/02/16 08:25:39;;;;;;;0.93;0.93;;;3.90;99.90;;;;;;4384150;32;20105;-63
2023/02/16 08:28:05;;;;;;;0.93;0.90;;;4.00;99.90;;;;;;4383338;32;20166;-63
2023/02/16 08:30:33;;;;;;;1.15;1.05;;;4.10;99.90;;;;;;4385247;32;20382;-62
2023/02/16 08:33:00;;;;;;;0.60;0.60;;;4.10;99.90;;;;;;4369743;32;20633;-64
2023/02/16 08:35:27;;;;;;;0.77;0.70;;;4.30;99.90;;;;;;4386237;32;20148;-64
2023/02/16 08:37:53;;;;;;;2.55;1.27;;;4.30;99.90;;;;;;4395616;32;20093;-65
2023/02/16 08:40:23;;;;;;;1.30;1.20;;;4.40;99.90;;;;;;4398742;32;20097;-63
2023/02/16 08:42:49;;;;;;;1.23;1.20;;;4.50;99.90;;;;;;4398522;32;20081;-63
2023/02/16 08:45:14;;;;;;;4.90;1.05;;;4.60;99.90;;;;;;4394805;32;20575;-63
2023/02/16 08:47:39;;;;;;;1.00;1.00;;;4.70;99.90;;;;;;4378856;32;20212;-63
2023/02/16 08:50:06;;;;;;;1.40;1.08;;;4.80;99.90;;;;;;4380058;32;20125;-63
2023/02/16 08:52:32;;;;;;;1.77;1.10;;;4.90;99.90;;;;;;4370806;32;20129;-65
2023/02/16 08:54:58;;;;;;;1.83;1.25;;;5.00;99.90;;;;;;4376874;32;20305;-62
2023/02/16 08:57:23;;;;;;;1.00;0.73;;;5.00;99.90;;;;;;4387688;32;20081;-62
2023/02/16 09:00:32;;;;;;;1.62;1.50;;;5.10;99.90;;;;;;4389598;32;20108;-63
2023/02/16 09:02:34;;;;;;;5.87;2.17;;;5.30;99.90;;;;;;4378731;32;20113;-63
2023/02/16 09:05:00;;;;;;;2.92;1.00;;;5.50;99.90;;;;;;4392268;32;20144;-64
2023/02/16 09:07:25;;;;;;;8.30;1.40;;;5.60;99.90;;;;;;4386688;32;20085;-63
2023/02/16 09:09:51;;;;;;;2.22;1.30;;;5.70;99.90;;;;;;4390031;32;20823;-63
2023/02/16 09:12:17;;;;;;;4.80;0.90;;;5.80;99.90;;;;;;4395740;32;20069;-62
2023/02/16 09:14:42;;;;;;;2.85;1.92;;;6.00;99.90;;;;;;4388885;32;20089;-64
2023/02/16 09:17:08;;;;;;;2.33;1.65;;;6.10;99.90;;;;;;4389055;32;20467;-63
2023/02/16 09:19:34;;;;;;;2.00;1.00;;;6.20;99.90;;;;;;4389586;32;20694;-64
2023/02/16 09:21:59;;;;;;;2.55;1.15;;;6.30;99.90;;;;;;4388428;32;20121;-64
2023/02/16 09:24:25;;;;;;;1.60;1.50;;;6.30;99.90;;;;;;4394221;32;20116;-64
2023/02/16 09:26:51;;;;;;;0.80;0.80;;;6.50;99.90;;;;;;4382947;32;20692;-62
2023/02/16 09:29:17;;;;;;;3.12;1.42;;;6.70;99.90;;;;;;4386896;32;20081;-63
2023/02/16 09:31:43;;;;;;;4.05;1.25;;;6.80;99.90;;;;;;4395256;32;20821;-63
2023/02/16 09:34:15;;;;;;;2.08;0.95;;;7.00;99.90;;;;;;4396287;32;20273;-62
2023/02/16 09:36:41;;;;;;;1.67;1.42;;;7.10;99.90;;;;;;4380272;32;20211;-65
2023/02/16 09:39:06;;;;;;;9.52;1.67;;;7.20;99.90;;;;;;4384093;32;20097;-64
2023/02/16 09:41:52;;;;;;;0.80;0.80;;;7.40;99.90;;;;;;4394928;32;20096;-64
2023/02/16 09:44:32;;;;;;;4.15;1.42;;;7.50;99.90;;;;;;4386684;32;20128;-64
2023/02/16 09:47:00;;;;;;;1.85;1.08;;;7.70;99.90;;;;;;4384710;32;20616;-64
2023/02/16 09:49:33;;;;;;;2.33;2.05;;;7.80;99.90;;;;;;4387640;32;20101;-62
2023/02/16 09:52:13;;;;;;;1.80;1.37;;;7.90;99.90;;;;;;4379794;32;20088;-63
2023/02/16 09:54:58;;;;;;;4.97;1.05;;;8.00;99.90;;;;;;4395115;32;20152;-63
2023/02/16 09:57:56;;;;;;;0.88;0.88;;;8.30;99.90;;;;;;4386738;32;20086;-64
2023/02/16 10:00:34;;;;;;;2.00;0.93;;;8.60;99.90;;;;;;4379409;32;20247;-63
2023/02/16 10:03:40;;;;;;;0.82;0.82;;;8.90;99.90;;;;;;4369967;32;20113;-63
2023/02/16 10:06:41;;;;;;;2.20;1.23;;;9.00;99.90;;;;;;4363726;32;21010;-62
2023/02/16 10:09:12;;;;;;;1.23;0.90;;;9.10;99.90;;;;;;4374774;32;22159;-62
2023/02/16 10:11:47;;;;;;;1.77;1.27;;;9.20;99.90;;;;;;4384344;32;21079;-63
2023/02/16 10:14:35;;;;;;;2.03;1.08;;;9.40;99.90;;;;;;4363570;32;21324;-62
2023/02/16 10:17:27;;;;;;;1.85;1.35;;;9.60;99.90;;;;;;4384094;32;20173;-62
2023/02/16 10:19:57;;;;;;;13.45;1.58;;;9.70;99.90;;;;;;4365804;32;20111;-62
2023/02/16 10:22:31;;;;;;;1.55;1.30;;;9.60;99.90;;;;;;4376843;32;20197;-63
2023/02/16 10:25:01;;;;;;;4.15;1.42;;;9.60;99.90;;;;;;4362816;32;20533;-61
2023/02/16 10:27:35;;;;;;;1.50;1.25;;;9.60;99.90;;;;;;4380945;32;20382;-63
2023/02/16 10:30:01;;;;;;;3.97;1.73;;;9.70;99.90;;;;;;4348741;32;21112;-62
2023/02/16 10:32:34;;;;;;;1.85;1.10;;;9.80;99.90;;;;;;4381646;32;20251;-61
2023/02/16 10:35:14;;;;;;;3.10;1.55;;;9.90;99.90;;;;;;4375113;32;20104;-63
2023/02/16 10:38:05;;;;;;;2.53;1.87;;;9.90;99.90;;;;;;4374302;32;20514;-63
2023/02/16 10:40:55;;;;;;;1.98;1.35;;;10.10;99.90;;;;;;4382609;32;20104;-63
2023/02/16 10:43:33;;;;;;;1.65;1.40;;;10.20;99.90;;;;;;4384255;32;20658;-62
2023/02/16 10:46:00;;;;;;;17.45;1.75;;;10.30;99.90;;;;;;4393454;32;20101;-64
2023/02/16 10:48:26;;;;;;;15.88;4.65;;;10.40;99.90;;;;;;4385865;32;20073;-63
2023/02/16 10:51:11;;;;;;;1.35;1.08;;;10.60;99.90;;;;;;4374031;32;20109;-62
2023/02/16 10:53:49;;;;;;;1.80;1.27;;;10.70;99.90;;;;;;4375276;32;20105;-63
2023/02/16 10:56:26;;;;;;;3.60;2.03;;;10.70;99.90;;;;;;4394418;32;20096;-63
2023/02/16 10:58:51;;;;;;;2.22;1.55;;;10.70;99.90;;;;;;4375162;32;20085;-62
2023/02/16 11:01:20;;;;;;;4.10;1.87;;;10.80;99.90;;;;;;4370772;32;20422;-63
2023/02/16 11:03:51;;;;;;;1.15;1.05;;;10.90;99.90;;;;;;4370606;32;20399;-63
2023/02/16 11:06:21;;;;;;;4.95;1.77;;;10.90;99.90;;;;;;4379310;32;20517;-63
2023/02/16 11:08:50;;;;;;;6.57;1.45;;;10.90;99.90;;;;;;4401167;32;20100;-64
2023/02/16 11:11:17;;;;;;;1.20;1.10;;;10.80;99.90;;;;;;4383423;32;20833;-64
2023/02/16 11:13:47;;;;;;;1.25;1.15;;;10.80;99.90;;;;;;4397837;32;20100;-64
2023/02/16 11:16:20;;;;;;;3.20;2.17;;;10.90;99.90;;;;;;4378161;32;21324;-63
2023/02/16 11:18:57;;;;;;;5.10;1.23;;;11.00;99.90;;;;;;4349827;32;20112;-64
2023/02/16 11:21:43;;;;;;;2.00;1.42;;;11.00;99.90;;;;;;4374137;32;20101;-64
2023/02/16 11:24:12;;;;;;;1.08;1.00;;;10.80;99.90;;;;;;4397989;32;20176;-63
2023/02/16 11:26:38;;;;;;;2.92;1.25;;;10.80;99.90;;;;;;4402120;32;20105;-63
2023/02/16 11:29:18;;;;;;;1.10;1.00;;;10.90;99.90;;;;;;4397663;32;20116;-63
2023/02/16 11:31:44;;;;;;;48.57;1.73;;;10.90;99.90;;;;;;4394620;32;20109;-64
2023/02/16 11:34:13;;;;;;;6.15;1.42;;;10.90;99.90;;;;;;4411934;32;20148;-65
2023/02/16 11:36:42;;;;;;;5.12;1.25;;;11.10;99.90;;;;;;4402593;32;20101;-64
2023/02/16 11:39:29;;;;;;;6.35;1.23;;;11.40;99.90;;;;;;4404535;32;20269;-65
2023/02/16 11:41:58;;;;;;;2.03;1.40;;;11.60;99.90;;;;;;4405959;32;83432;-64
2023/02/16 11:44:32;;;;;;;1.87;1.42;;;11.60;99.90;;;;;;4408101;32;20106;-63
2023/02/16 11:47:02;;;;;;;11.88;2.80;;;11.80;99.90;;;;;;4414000;32;20082;-65
2023/02/16 11:49:32;;;;;;;1.27;1.00;;;12.00;99.90;;;;;;4412236;32;20108;-64
2023/02/16 11:51:58;;;;;;;1.98;1.30;;;12.40;99.90;;;;;;4398483;32;20113;-64
2023/02/16 11:54:24;;;;;;;6.37;1.65;;;12.50;99.90;;;;;;4378180;32;20116;-64
2023/02/16 11:57:08;;;;;;;4.80;1.90;;;12.80;99.90;;;;;;4386616;32;20556;-65
2023/02/16 11:59:36;;;;;;;9.93;2.30;;;13.20;99.90;;;;;;4381111;32;20188;-64
2023/02/16 12:02:15;;;;;;;1.10;0.93;;;13.30;99.90;;;;;;4392563;32;20097;-65
2023/02/16 12:05:20;;;;;;;2.00;1.33;;;13.50;99.90;;;;;;4395040;32;21298;-65
2023/02/16 12:08:17;;;;;;;2.87;1.45;;;13.80;99.90;;;;;;4390444;32;20126;-65
2023/02/16 12:11:18;;;;;;;1.87;1.35;;;13.80;99.90;;;;;;4393635;32;20601;-65
2023/02/16 12:14:05;;;;;;;3.08;1.90;;;13.90;99.90;;;;;;4393409;32;20093;-65
2023/02/16 12:16:38;;;;;;;1.92;1.52;;;13.90;99.90;;;;;;4396917;32;20607;-65
2023/02/16 12:19:31;;;;;;;3.72;1.70;;;13.50;99.90;;;;;;4386172;32;20749;-65
2023/02/16 12:22:22;;;;;;;5.22;2.40;;;13.70;99.90;;;;;;4387451;32;20171;-67
2023/02/16 12:25:17;;;;;;;2.45;1.80;;;14.20;99.90;;;;;;4380335;32;20153;-65
2023/02/16 12:27:51;;;;;;;1.23;1.12;;;14.50;99.90;;;;;;4395913;32;20120;-65
2023/02/16 12:30:43;;;;;;;2.70;1.73;;;14.50;99.90;;;;;;4390881;32;21454;-65
2023/02/16 12:33:28;;;;;;;18.60;1.37;;;14.70;99.90;;;;;;4399983;32;20109;-64
2023/02/16 12:36:10;;;;;;;8.50;1.45;;;14.50;99.90;;;;;;4409128;32;20154;-65
2023/02/16 12:38:57;;;;;;;2.42;1.52;;;14.90;99.90;;;;;;4396348;32;20097;-64
2023/02/16 12:41:39;;;;;;;1.42;1.30;;;15.20;99.90;;;;;;4389055;32;20738;-65
2023/02/16 12:44:14;;;;;;;22.83;2.45;;;15.20;99.90;;;;;;4378218;32;20097;-63
2023/02/16 12:46:43;;;;;;;1.30;1.12;;;15.70;99.60;;;;;;4396820;32;20153;-66
2023/02/16 12:49:26;;;;;;;3.03;1.55;;;15.80;98.50;;;;;;4406708;32;20184;-63
2023/02/16 12:52:17;;;;;;;1.42;1.33;;;15.90;99.00;;;;;;4417165;32;20252;-64
2023/02/16 12:54:49;;;;;;;6.87;1.98;;;15.70;98.90;;;;;;4403441;32;21783;-64
2023/02/16 12:57:19;;;;;;;5.53;1.25;;;15.30;99.30;;;;;;4406182;32;20493;-64
2023/02/16 13:00:24;;;;;;;2.92;1.50;;;14.80;99.10;;;;;;4396728;32;21112;-64
2023/02/16 13:02:59;;;;;;;1.67;1.55;;;14.60;99.90;;;;;;4378921;32;20113;-64
2023/02/16 13:05:36;;;;;;;7.65;2.22;;;15.10;99.90;;;;;;4398141;32;20085;-64
2023/02/16 13:08:42;;;;;;;3.90;1.42;;;15.40;99.10;;;;;;4388517;32;20156;-64
2023/02/16 13:11:16;;;;;;;1.77;1.00;;;15.40;98.90;;;;;;4402862;32;20510;-64
2023/02/16 13:13:45;;;;;;;5.60;1.85;;;15.60;98.00;;;;;;4403405;32;20560;-63
2023/02/16 13:16:22;;;;;;;6.45;1.75;;;15.80;97.50;;;;;;4409139;32;20434;-63
2023/02/16 13:18:50;;;;;;;2.72;1.50;;;15.50;97.50;;;;;;4401452;32;20097;-64
2023/02/16 13:21:26;;;;;;;2.87;1.83;;;15.20;98.40;;;;;;4403572;32;21330;-63
2023/02/16 13:24:14;;;;;;;1.30;1.20;;;15.20;98.20;;;;;;4403125;32;20125;-63
2023/02/16 13:27:11;;;;;;;5.95;1.67;;;15.20;98.30;;;;;;4400640;32;20454;-64
2023/02/16 13:29:59;;;;;;;1.65;1.00;;;15.20;98.20;;;;;;4402837;32;20105;-64
2023/02/16 13:32:55;;;;;;;1.50;1.40;;;15.00;98.60;;;;;;4404063;32;20942;-65
2023/02/16 13:35:48;;;;;;;4.28;1.60;;;14.80;98.90;;;;;;4407273;32;20076;-65
2023/02/16 13:38:24;;;;;;;1.70;1.00;;;14.70;99.30;;;;;;4410158;32;20089;-65